Time;durP1;ratioP1;P1;durP2;ratioP2;P2;SDS_P1;SDS_P2;PMS_P1;PMS_P2;Temp;Humidity;BMP_temperature;BMP_pressure;BME280_temperature;BME280_humidity;BME280_pressure;Samples;Min_cycle;Max_cycle;Signal;HPM_P1;HPM_P2
2023/05/15 00:01:05;;;;;;;;;;;;;;;17.18;46.14;98767.02;108158;1305;22415;-45
2023/05/15 00:03:30;;;;;;;;;;;;;;;17.18;46.12;98762.96;108141;1305;23157;-44
2023/05/15 00:05:55;;;;;;;;;;;;;;;17.17;46.64;98762.04;108137;1305;22419;-45
2023/05/15 00:08:21;;;;;;;;;;;;;;;17.17;46.67;98763.78;108134;1305;23449;-45
2023/05/15 00:10:46;;;;;;;;;;;;;;;17.16;46.89;98765.48;108120;1305;22417;-46
2023/05/15 00:13:11;;;;;;;;;;;;;;;17.14;48.35;98774.13;108136;1305;23231;-47
2023/05/15 00:15:36;;;;;;;;;;;;;;;17.12;47.97;98772.00;108138;1305;23123;-45
2023/05/15 00:18:01;;;;;;;;;;;;;;;17.08;48.57;98766.85;108140;1305;22520;-48
2023/05/15 00:20:27;;;;;;;;;;;;;;;17.02;48.45;98760.00;108161;1305;22427;-48
2023/05/15 00:22:52;;;;;;;;;;;;;;;16.98;49.00;98744.98;108127;1305;22440;-46
2023/05/15 00:25:18;;;;;;;;;;;;;;;16.94;48.92;98729.96;108137;1305;22420;-46
2023/05/15 00:27:43;;;;;;;;;;;;;;;16.91;49.34;98726.87;108152;1305;22427;-46
2023/05/15 00:30:09;;;;;;;;;;;;;;;16.88;49.67;98721.55;108134;1305;22527;-46
2023/05/15 00:32:34;;;;;;;;;;;;;;;16.87;49.58;98710.02;108143;1305;22452;-44
2023/05/15 00:34:59;;;;;;;;;;;;;;;16.81;50.02;98703.80;108150;1305;22417;-44
2023/05/15 00:37:24;;;;;;;;;;;;;;;16.77;50.18;98705.52;108142;1305;22660;-47
2023/05/15 00:39:50;;;;;;;;;;;;;;;16.77;50.86;98707.73;108143;1305;23181;-42
2023/05/15 00:42:16;;;;;;;;;;;;;;;16.75;50.94;98702.05;108135;1305;23163;-48
2023/05/15 00:44:42;;;;;;;;;;;;;;;16.74;50.99;98693.98;108137;1305;22528;-45
2023/05/15 00:47:09;;;;;;;;;;;;;;;16.71;51.30;98687.33;108164;1305;22554;-44
2023/05/15 00:49:36;;;;;;;;;;;;;;;16.69;52.10;98682.94;108156;1298;23228;-45
2023/05/15 00:52:02;;;;;;;;;;;;;;;16.65;52.53;98673.35;108155;1305;22512;-47
2023/05/15 00:54:27;;;;;;;;;;;;;;;16.64;53.11;98665.73;108158;1305;23199;-44
2023/05/15 00:56:55;;;;;;;;;;;;;;;16.63;54.20;98661.22;108129;1305;22533;-47
2023/05/15 00:59:21;;;;;;;;;;;;;;;16.60;54.24;98660.71;108143;1305;23103;-45
2023/05/15 01:01:46;;;;;;;;;;;;;;;16.56;56.85;98661.48;108128;1305;22445;-48
2023/05/15 01:04:12;;;;;;;;;;;;;;;16.51;57.80;98671.98;108150;1305;22434;-45
2023/05/15 01:06:37;;;;;;;;;;;;;;;16.46;58.68;98677.52;108099;1305;23238;-45
2023/05/15 01:09:03;;;;;;;;;;;;;;;16.45;57.28;98678.89;108056;1306;22487;-44
2023/05/15 01:11:34;;;;;;;;;;;;;;;16.43;58.18;98674.77;108048;1307;23090;-48
2023/05/15 01:14:04;;;;;;;;;;;;;;;16.40;57.54;98674.91;108119;1305;23260;-47
2023/05/15 01:16:30;;;;;;;;;;;;;;;16.37;57.85;98669.02;108135;1305;23260;-48
2023/05/15 01:18:55;;;;;;;;;;;;;;;16.35;58.37;98662.80;108055;1306;23214;-47
2023/05/15 01:21:23;;;;;;;;;;;;;;;16.33;58.40;98658.91;108016;1307;22438;-47
2023/05/15 01:24:01;;;;;;;;;;;;;;;16.30;58.36;98659.71;108048;1306;23173;-47
2023/05/15 01:26:42;;;;;;;;;;;;;;;16.29;58.21;98661.36;108043;1306;22643;-49
2023/05/15 01:29:11;;;;;;;;;;;;;;;16.27;58.65;98657.61;108042;1306;22423;-47
2023/05/15 01:31:37;;;;;;;;;;;;;;;16.25;59.69;98653.20;108043;1307;22496;-46
2023/05/15 01:34:05;;;;;;;;;;;;;;;16.23;60.23;98647.56;108049;1306;23123;-47
2023/05/15 01:36:36;;;;;;;;;;;;;;;16.17;61.02;98642.64;108043;1306;22461;-46
2023/05/15 01:39:02;;;;;;;;;;;;;;;16.16;61.19;98633.95;108039;1306;22511;-46
2023/05/15 01:41:35;;;;;;;;;;;;;;;16.16;61.44;98633.42;108031;1307;22530;-51
2023/05/15 01:44:06;;;;;;;;;;;;;;;16.14;61.55;98633.00;108068;1305;22453;-44
2023/05/15 01:46:33;;;;;;;;;;;;;;;16.13;62.09;98630.06;108161;1305;23400;-43
2023/05/15 01:49:00;;;;;;;;;;;;;;;16.10;63.73;98627.65;108134;1305;22430;-47
2023/05/15 01:51:26;;;;;;;;;;;;;;;16.07;63.37;98624.97;108145;1305;22453;-49
2023/05/15 01:53:52;;;;;;;;;;;;;;;16.04;63.82;98621.83;108162;1305;22450;-46
2023/05/15 01:56:18;;;;;;;;;;;;;;;16.04;64.83;98615.33;108155;1305;23347;-50
2023/05/15 01:58:45;;;;;;;;;;;;;;;16.03;65.60;98610.80;108166;1305;22429;-50
2023/05/15 02:01:12;;;;;;;;;;;;;;;16.01;64.82;98608.50;107917;1305;23041;-49
2023/05/15 02:03:37;;;;;;;;;;;;;;;15.99;66.03;98610.81;108150;1306;23310;-47
2023/05/15 02:06:03;;;;;;;;;;;;;;;15.96;67.25;98608.27;107908;1306;22488;-45
2023/05/15 02:08:30;;;;;;;;;;;;;;;15.92;68.35;98597.08;108151;1306;22470;-46
2023/05/15 02:10:57;;;;;;;;;;;;;;;15.88;67.15;98591.94;108132;1305;23142;-47
2023/05/15 02:13:24;;;;;;;;;;;;;;;15.85;67.85;98588.51;107891;1305;22471;-47
2023/05/15 02:15:49;;;;;;;;;;;;;;;15.81;67.29;98585.54;108155;1305;22419;-47
2023/05/15 02:18:14;;;;;;;;;;;;;;;15.76;67.95;98586.12;108142;1305;22444;-46
2023/05/15 02:20:39;;;;;;;;;;;;;;;15.71;68.49;98583.31;108149;1305;22493;-47
2023/05/15 02:23:05;;;;;;;;;;;;;;;15.71;69.14;98580.70;108144;1306;23386;-44
2023/05/15 02:25:48;;;;;;;;;;;;;;;15.71;68.20;98570.98;108169;1305;22449;-46
2023/05/15 02:28:22;;;;;;;;;;;;;;;15.69;68.62;98564.58;108154;1305;22583;-45
2023/05/15 02:30:54;;;;;;;;;;;;;;;15.67;68.93;98557.15;108147;1305;22446;-45
2023/05/15 02:33:19;;;;;;;;;;;;;;;15.66;69.11;98552.19;108151;1305;22463;-46
2023/05/15 02:35:51;;;;;;;;;;;;;;;15.66;69.35;98548.15;108138;1305;22462;-44
2023/05/15 02:38:18;;;;;;;;;;;;;;;15.62;70.03;98542.99;108143;1305;23240;-47
2023/05/15 02:40:46;;;;;;;;;;;;;;;15.61;69.31;98533.50;108153;1305;23201;-41
2023/05/15 02:43:12;;;;;;;;;;;;;;;15.60;70.23;98523.52;108143;1305;23176;-45
2023/05/15 02:45:38;;;;;;;;;;;;;;;15.60;70.49;98519.15;108125;1305;22422;-48
2023/05/15 02:48:04;;;;;;;;;;;;;;;15.58;69.91;98513.98;108138;1305;22917;-45
2023/05/15 02:50:29;;;;;;;;;;;;;;;15.58;70.77;98514.94;108124;1305;22427;-43
2023/05/15 02:53:01;;;;;;;;;;;;;;;15.57;70.73;98517.47;108133;1305;22425;-44
2023/05/15 02:55:27;;;;;;;;;;;;;;;15.56;71.98;98515.08;108143;1305;22459;-49
2023/05/15 02:57:52;;;;;;;;;;;;;;;15.55;72.82;98517.78;108039;1305;137049;-43
2023/05/15 03:00:17;;;;;;;;;;;;;;;15.54;73.15;98511.17;108127;1306;24458;-45
2023/05/15 03:02:42;;;;;;;;;;;;;;;15.54;72.68;98507.13;108122;1305;22422;-43
2023/05/15 03:05:09;;;;;;;;;;;;;;;15.51;72.94;98505.58;108116;1305;22404;-45
2023/05/15 03:07:34;;;;;;;;;;;;;;;15.51;72.72;98494.84;108151;1305;22466;-48
2023/05/15 03:09:59;;;;;;;;;;;;;;;15.48;73.19;98490.35;108134;1305;22441;-46
2023/05/15 03:12:24;;;;;;;;;;;;;;;15.47;72.48;98490.20;108138;1305;22431;-43
2023/05/15 03:14:50;;;;;;;;;;;;;;;15.47;71.93;98489.00;108152;1305;22514;-45
2023/05/15 03:17:15;;;;;;;;;;;;;;;15.46;72.24;98487.02;108137;1305;22491;-45
2023/05/15 03:19:40;;;;;;;;;;;;;;;15.44;72.16;98482.56;108119;1305;23218;-45
2023/05/15 03:22:06;;;;;;;;;;;;;;;15.44;73.22;98476.59;108116;1305;22457;-47
2023/05/15 03:24:31;;;;;;;;;;;;;;;15.42;72.67;98475.89;108122;1305;22409;-45
2023/05/15 03:26:56;;;;;;;;;;;;;;;15.40;70.46;98474.40;108111;1305;23361;-46
2023/05/15 03:29:21;;;;;;;;;;;;;;;15.36;71.09;98468.92;108132;1305;22421;-46
2023/05/15 03:31:47;;;;;;;;;;;;;;;15.33;72.71;98464.10;108138;1305;23293;-46
2023/05/15 03:34:12;;;;;;;;;;;;;;;15.32;72.89;98457.07;108134;1305;22415;-48
2023/05/15 03:38:19;;;;;;;;;;;;;;;15.29;74.20;98452.95;107542;1305;556748;-47
2023/05/15 03:40:44;;;;;;;;;;;;;;;15.24;73.17;98451.96;107987;1307;23262;-45
2023/05/15 03:43:09;;;;;;;;;;;;;;;15.21;74.71;98452.80;107946;1306;23312;-45
2023/05/15 03:45:34;;;;;;;;;;;;;;;15.21;75.75;98450.70;107966;1306;22579;-47
2023/05/15 03:48:00;;;;;;;;;;;;;;;15.16;76.15;98452.83;107943;1307;22755;-49
2023/05/15 03:50:25;;;;;;;;;;;;;;;15.14;76.64;98452.36;107845;1306;157397;-51
2023/05/15 03:52:50;;;;;;;;;;;;;;;15.11;77.76;98456.31;108200;1301;22461;-49
2023/05/15 03:55:16;;;;;;;;;;;;;;;15.10;76.90;98450.90;108218;1304;22504;-45
2023/05/15 03:57:43;;;;;;;;;;;;;;;15.09;76.54;98450.33;108216;1293;22542;-45
2023/05/15 04:00:09;;;;;;;;;;;;;;;15.03;76.87;98448.02;107754;1304;22477;-48
2023/05/15 04:02:35;;;;;;;;;;;;;;;14.97;77.72;98447.80;108184;1304;22550;-44
2023/05/15 04:05:00;;;;;;;;;;;;;;;14.93;79.64;98448.02;108198;1304;22499;-44
2023/05/15 04:07:25;;;;;;;;;;;;;;;14.90;80.41;98445.21;108204;1304;22490;-49
2023/05/15 04:09:50;;;;;;;;;;;;;;;14.89;76.58;98444.42;108188;1304;23267;-46
2023/05/15 04:12:16;;;;;;;;;;;;;;;14.81;78.50;98443.50;108184;1304;23426;-49
2023/05/15 04:14:41;;;;;;;;;;;;;;;14.79;80.94;98444.41;108202;1304;22482;-45
2023/05/15 04:17:06;;;;;;;;;;;;;;;14.76;83.20;98442.38;108214;1304;22546;-41
2023/05/15 04:19:31;;;;;;;;;;;;;;;14.73;81.48;98440.17;108197;1304;23279;-47
2023/05/15 04:21:56;;;;;;;;;;;;;;;14.69;82.43;98442.25;107716;1307;23264;-47
2023/05/15 04:24:22;;;;;;;;;;;;;;;14.70;81.66;98439.77;108030;1304;22465;-46
2023/05/15 04:26:47;;;;;;;;;;;;;;;14.68;83.85;98440.64;108219;1304;22558;-49
2023/05/15 04:29:12;;;;;;;;;;;;;;;14.67;84.20;98434.38;108193;1304;22492;-45
2023/05/15 04:31:37;;;;;;;;;;;;;;;14.61;83.72;98429.58;108206;1304;22581;-47
2023/05/15 04:34:03;;;;;;;;;;;;;;;14.55;84.65;98425.39;108201;1304;22683;-46
2023/05/15 04:36:29;;;;;;;;;;;;;;;14.54;83.85;98421.11;108169;1304;22615;-45
2023/05/15 04:38:54;;;;;;;;;;;;;;;14.48;86.58;98417.92;108085;1299;22495;-42
2023/05/15 04:41:19;;;;;;;;;;;;;;;14.50;84.98;98411.38;108084;1305;22495;-46
2023/05/15 04:43:45;;;;;;;;;;;;;;;14.51;86.26;98407.09;107661;1302;23293;-46
2023/05/15 04:46:10;;;;;;;;;;;;;;;14.53;85.47;98402.71;108092;1305;22520;-45
2023/05/15 04:48:35;;;;;;;;;;;;;;;14.54;86.08;98402.22;107863;1305;23186;-43
2023/05/15 04:51:01;;;;;;;;;;;;;;;14.54;86.97;98403.67;108048;1305;22479;-50
2023/05/15 04:53:26;;;;;;;;;;;;;;;14.53;87.80;98402.33;108083;1305;22542;-45
2023/05/15 04:55:51;;;;;;;;;;;;;;;14.52;89.10;98402.05;108066;1305;22482;-47
2023/05/15 04:58:16;;;;;;;;;;;;;;;14.51;88.84;98399.13;108081;1305;22483;-48
2023/05/15 05:00:41;;;;;;;;;;;;;;;14.50;87.42;98395.75;108076;1305;22483;-48
2023/05/15 05:03:07;;;;;;;;;;;;;;;14.50;87.00;98400.63;108088;1305;22548;-44
2023/05/15 05:05:32;;;;;;;;;;;;;;;14.49;85.37;98400.02;108066;1305;22476;-47
2023/05/15 05:07:57;;;;;;;;;;;;;;;14.47;86.50;98399.14;108065;1305;23220;-44
2023/05/15 05:10:22;;;;;;;;;;;;;;;14.48;86.71;98394.33;108049;1305;23277;-46
2023/05/15 05:12:47;;;;;;;;;;;;;;;14.48;88.45;98393.80;108076;1305;22477;-42
2023/05/15 05:15:13;;;;;;;;;;;;;;;14.46;89.63;98394.65;108053;1305;22597;-47
2023/05/15 05:17:38;;;;;;;;;;;;;;;14.48;87.83;98392.54;108072;1305;22475;-52
2023/05/15 05:20:03;;;;;;;;;;;;;;;14.49;88.39;98394.93;108065;1305;22489;-45
2023/05/15 05:22:29;;;;;;;;;;;;;;;14.47;89.57;98395.65;108079;1305;24484;-44
2023/05/15 05:24:55;;;;;;;;;;;;;;;14.44;89.56;98394.46;108067;1305;22608;-46
2023/05/15 05:27:20;;;;;;;;;;;;;;;14.39;90.79;98395.11;108076;1305;22521;-48
2023/05/15 05:29:45;;;;;;;;;;;;;;;14.32;89.75;98396.74;108086;1305;22491;-44
2023/05/15 05:32:11;;;;;;;;;;;;;;;14.22;88.80;98391.75;108068;1305;23298;-42
2023/05/15 05:34:36;;;;;;;;;;;;;;;14.17;90.29;98388.44;108077;1305;22476;-44
2023/05/15 05:37:01;;;;;;;;;;;;;;;14.14;89.90;98390.59;108080;1305;23269;-46
2023/05/15 05:39:27;;;;;;;;;;;;;;;14.13;89.04;98383.88;108063;1284;22492;-47
2023/05/15 05:41:52;;;;;;;;;;;;;;;14.09;89.47;98381.73;108080;1305;22510;-51
2023/05/15 05:44:17;;;;;;;;;;;;;;;14.04;90.34;98371.05;108051;1305;23138;-45
2023/05/15 05:46:44;;;;;;;;;;;;;;;14.01;88.33;98365.16;108056;1305;25190;-42
2023/05/15 05:49:09;;;;;;;;;;;;;;;13.97;89.14;98360.68;108076;1305;22479;-45
2023/05/15 05:51:37;;;;;;;;;;;;;;;13.97;87.84;98356.69;108074;1305;22505;-43
2023/05/15 05:54:03;;;;;;;;;;;;;;;13.91;88.10;98355.55;108069;1305;22585;-46
2023/05/15 05:56:28;;;;;;;;;;;;;;;13.87;87.44;98351.48;108047;1305;22490;-46
2023/05/15 05:58:55;;;;;;;;;;;;;;;13.83;86.76;98349.38;108048;1305;22490;-40
2023/05/15 06:01:20;;;;;;;;;;;;;;;13.78;87.15;98352.63;108089;1305;22484;-45
2023/05/15 06:03:45;;;;;;;;;;;;;;;13.75;88.55;98351.27;108048;1305;22523;-47
2023/05/15 06:06:11;;;;;;;;;;;;;;;13.75;88.50;98350.93;108043;1305;24471;-45
2023/05/15 06:08:36;;;;;;;;;;;;;;;13.77;87.82;98349.49;108062;1305;22546;-48
2023/05/15 06:11:02;;;;;;;;;;;;;;;13.75;87.54;98347.76;108074;1305;22523;-46
2023/05/15 06:13:27;;;;;;;;;;;;;;;13.79;86.93;98345.67;108066;1305;22659;-45
2023/05/15 06:15:53;;;;;;;;;;;;;;;13.80;88.97;98339.76;108078;1305;22490;-44
2023/05/15 06:18:18;;;;;;;;;;;;;;;13.82;88.07;98336.08;108073;1305;22466;-47
2023/05/15 06:20:43;;;;;;;;;;;;;;;13.83;86.45;98334.39;108073;1305;22495;-42
2023/05/15 06:23:08;;;;;;;;;;;;;;;13.82;88.89;98327.60;108059;1305;22491;-47
2023/05/15 06:25:34;;;;;;;;;;;;;;;13.81;91.94;98320.30;108077;1305;23225;-43
2023/05/15 06:27:59;;;;;;;;;;;;;;;13.83;91.68;98316.77;108093;1305;23199;-44
2023/05/15 06:30:24;;;;;;;;;;;;;;;13.92;89.46;98310.92;108062;1305;22478;-42
2023/05/15 06:32:50;;;;;;;;;;;;;;;13.93;88.52;98309.57;108063;1305;22547;-46
2023/05/15 06:35:15;;;;;;;;;;;;;;;13.96;89.92;98307.02;108075;1305;22471;-48
2023/05/15 06:37:40;;;;;;;;;;;;;;;14.04;89.22;98298.83;108048;1305;22498;-44
2023/05/15 06:40:05;;;;;;;;;;;;;;;14.09;90.46;98288.45;108048;1305;22505;-46
2023/05/15 06:42:31;;;;;;;;;;;;;;;14.15;89.26;98284.31;108038;1305;22508;-45
2023/05/15 06:44:56;;;;;;;;;;;;;;;14.22;89.19;98290.72;108061;1305;22953;-47
2023/05/15 06:47:21;;;;;;;;;;;;;;;14.24;90.78;98291.50;108038;1305;22489;-48
2023/05/15 06:49:47;;;;;;;;;;;;;;;14.28;90.07;98290.05;108045;1305;22499;-48
2023/05/15 06:52:12;;;;;;;;;;;;;;;14.25;89.55;98290.15;108082;1305;22554;-47
2023/05/15 06:54:39;;;;;;;;;;;;;;;14.21;90.05;98291.71;108064;1305;22709;-53
2023/05/15 06:57:04;;;;;;;;;;;;;;;14.21;90.22;98295.61;108057;1305;22497;-45
2023/05/15 06:59:33;;;;;;;;;;;;;;;14.26;88.59;98299.77;108045;1305;22724;-44
2023/05/15 07:01:59;;;;;;;;;;;;;;;14.22;88.31;98302.89;108063;1305;22563;-47
2023/05/15 07:04:24;;;;;;;;;;;;;;;14.24;88.32;98300.96;108042;1305;23285;-46
2023/05/15 07:06:50;;;;;;;;;;;;;;;14.25;88.90;98292.40;108055;1283;22510;-47
2023/05/15 07:09:15;;;;;;;;;;;;;;;14.27;90.57;98286.95;108037;1305;22493;-46
2023/05/15 07:11:41;;;;;;;;;;;;;;;14.26;91.09;98280.85;108056;1305;22533;-46
2023/05/15 07:14:06;;;;;;;;;;;;;;;14.16;90.73;98269.89;108040;1305;22475;-44
2023/05/15 07:16:31;;;;;;;;;;;;;;;14.20;91.90;98262.48;108029;1305;24452;-46
2023/05/15 07:18:56;;;;;;;;;;;;;;;14.23;92.47;98256.27;108060;1305;22490;-41
2023/05/15 07:21:21;;;;;;;;;;;;;;;14.32;90.76;98251.56;108047;1305;22507;-46
2023/05/15 07:23:47;;;;;;;;;;;;;;;14.39;90.22;98254.70;108041;1305;22522;-44
2023/05/15 07:26:15;;;;;;;;;;;;;;;14.39;92.15;98255.01;108028;1305;23689;-45
2023/05/15 07:28:40;;;;;;;;;;;;;;;14.42;92.06;98251.09;108063;1305;22672;-48
2023/05/15 07:31:06;;;;;;;;;;;;;;;14.48;91.60;98245.08;108031;1305;23239;-46
2023/05/15 07:33:31;;;;;;;;;;;;;;;14.58;92.31;98245.11;108050;1305;22580;-49
2023/05/15 07:35:56;;;;;;;;;;;;;;;14.60;91.36;98248.30;108028;1305;23038;-50
2023/05/15 07:38:21;;;;;;;;;;;;;;;14.64;91.40;98238.42;108058;1305;23320;-53
2023/05/15 07:40:46;;;;;;;;;;;;;;;14.68;92.04;98237.02;108075;1305;22467;-47
2023/05/15 07:43:12;;;;;;;;;;;;;;;14.72;93.51;98233.88;108045;1305;22500;-44
2023/05/15 07:45:37;;;;;;;;;;;;;;;14.73;91.86;98235.48;108051;1305;22477;-45
2023/05/15 07:48:12;;;;;;;;;;;;;;;14.72;90.42;98237.24;108064;1305;22611;-52
